sensor_id;sensor_type;location;lat;lon;timestamp;P1;durP1;ratioP1;P2;durP2;ratioP2
12950;SDS011;6540;50.858;7.232;2023-02-28T00:01:13;2.93;;;2.07;;
12950;SDS011;6540;50.858;7.232;2023-02-28T00:03:40;5.00;;;2.70;;
12950;SDS011;6540;50.858;7.232;2023-02-28T00:06:06;1.87;;;1.77;;
12950;SDS011;6540;50.858;7.232;2023-02-28T00:08:32;3.40;;;2.20;;
12950;SDS011;6540;50.858;7.232;2023-02-28T00:11:02;4.70;;;2.43;;
12950;SDS011;6540;50.858;7.232;2023-02-28T00:13:28;2.50;;;2.07;;
12950;SDS011;6540;50.858;7.232;2023-02-28T00:16:04;2.60;;;2.40;;
12950;SDS011;6540;50.858;7.232;2023-02-28T00:18:34;6.63;;;2.70;;
12950;SDS011;6540;50.858;7.232;2023-02-28T00:21:00;6.07;;;3.13;;
12950;SDS011;6540;50.858;7.232;2023-02-28T00:23:25;4.93;;;2.33;;
12950;SDS011;6540;50.858;7.232;2023-02-28T00:25:51;3.97;;;2.27;;
12950;SDS011;6540;50.858;7.232;2023-02-28T00:28:17;5.07;;;2.93;;
12950;SDS011;6540;50.858;7.232;2023-02-28T00:30:42;3.67;;;2.33;;
12950;SDS011;6540;50.858;7.232;2023-02-28T00:33:08;2.97;;;2.13;;
12950;SDS011;6540;50.858;7.232;2023-02-28T00:35:33;2.43;;;2.00;;
12950;SDS011;6540;50.858;7.232;2023-02-28T00:37:59;2.07;;;1.97;;
12950;SDS011;6540;50.858;7.232;2023-02-28T00:40:24;2.80;;;2.13;;
12950;SDS011;6540;50.858;7.232;2023-02-28T00:42:49;1.90;;;1.70;;
12950;SDS011;6540;50.858;7.232;2023-02-28T00:45:15;2.40;;;2.20;;
12950;SDS011;6540;50.858;7.232;2023-02-28T00:47:40;2.27;;;2.00;;
12950;SDS011;6540;50.858;7.232;2023-02-28T00:50:05;3.03;;;2.37;;
12950;SDS011;6540;50.858;7.232;2023-02-28T00:52:31;4.53;;;2.37;;
12950;SDS011;6540;50.858;7.232;2023-02-28T00:54:57;1.90;;;1.80;;
12950;SDS011;6540;50.858;7.232;2023-02-28T00:57:22;2.70;;;2.13;;
12950;SDS011;6540;50.858;7.232;2023-02-28T00:59:47;2.30;;;2.10;;
12950;SDS011;6540;50.858;7.232;2023-02-28T01:02:13;3.33;;;2.30;;
12950;SDS011;6540;50.858;7.232;2023-02-28T01:04:39;3.90;;;2.57;;
12950;SDS011;6540;50.858;7.232;2023-02-28T01:07:04;2.87;;;1.77;;
12950;SDS011;6540;50.858;7.232;2023-02-28T01:09:29;2.47;;;1.83;;
12950;SDS011;6540;50.858;7.232;2023-02-28T01:11:55;2.17;;;1.80;;
12950;SDS011;6540;50.858;7.232;2023-02-28T01:14:21;2.10;;;1.80;;
12950;SDS011;6540;50.858;7.232;2023-02-28T01:16:46;2.63;;;2.07;;
12950;SDS011;6540;50.858;7.232;2023-02-28T01:19:12;2.57;;;2.03;;
12950;SDS011;6540;50.858;7.232;2023-02-28T01:21:37;3.40;;;1.83;;
12950;SDS011;6540;50.858;7.232;2023-02-28T01:24:03;4.07;;;2.50;;
12950;SDS011;6540;50.858;7.232;2023-02-28T01:26:29;3.40;;;2.17;;
12950;SDS011;6540;50.858;7.232;2023-02-28T01:28:55;2.30;;;1.77;;
12950;SDS011;6540;50.858;7.232;2023-02-28T01:31:21;5.43;;;2.67;;
12950;SDS011;6540;50.858;7.232;2023-02-28T01:33:47;2.67;;;1.80;;
12950;SDS011;6540;50.858;7.232;2023-02-28T01:36:20;2.43;;;1.87;;
12950;SDS011;6540;50.858;7.232;2023-02-28T01:38:48;3.73;;;2.17;;
12950;SDS011;6540;50.858;7.232;2023-02-28T01:41:18;2.83;;;2.00;;
12950;SDS011;6540;50.858;7.232;2023-02-28T01:46:11;2.40;;;2.20;;
12950;SDS011;6540;50.858;7.232;2023-02-28T01:48:38;1.67;;;1.57;;
12950;SDS011;6540;50.858;7.232;2023-02-28T01:51:12;4.03;;;2.03;;
12950;SDS011;6540;50.858;7.232;2023-02-28T01:53:44;2.20;;;1.70;;
12950;SDS011;6540;50.858;7.232;2023-02-28T01:56:13;2.23;;;1.93;;
12950;SDS011;6540;50.858;7.232;2023-02-28T01:58:46;2.33;;;2.10;;
12950;SDS011;6540;50.858;7.232;2023-02-28T02:01:12;1.83;;;1.63;;
12950;SDS011;6540;50.858;7.232;2023-02-28T02:03:46;6.67;;;1.87;;
12950;SDS011;6540;50.858;7.232;2023-02-28T02:06:13;3.57;;;1.70;;
12950;SDS011;6540;50.858;7.232;2023-02-28T02:08:38;4.37;;;1.60;;
12950;SDS011;6540;50.858;7.232;2023-02-28T02:11:03;1.63;;;1.53;;
12950;SDS011;6540;50.858;7.232;2023-02-28T02:16:23;1.70;;;1.60;;
12950;SDS011;6540;50.858;7.232;2023-02-28T02:18:52;2.57;;;1.63;;
12950;SDS011;6540;50.858;7.232;2023-02-28T02:21:36;3.53;;;1.70;;
12950;SDS011;6540;50.858;7.232;2023-02-28T02:40:48;3.70;;;1.83;;
12950;SDS011;6540;50.858;7.232;2023-02-28T02:43:29;1.40;;;1.30;;
12950;SDS011;6540;50.858;7.232;2023-02-28T02:46:09;1.40;;;1.30;;
12950;SDS011;6540;50.858;7.232;2023-02-28T02:48:40;3.47;;;1.90;;
12950;SDS011;6540;50.858;7.232;2023-02-28T02:51:13;2.90;;;1.80;;
12950;SDS011;6540;50.858;7.232;2023-02-28T02:53:43;2.17;;;1.87;;
12950;SDS011;6540;50.858;7.232;2023-02-28T02:56:14;2.00;;;1.90;;
12950;SDS011;6540;50.858;7.232;2023-02-28T02:58:42;1.50;;;1.40;;
12950;SDS011;6540;50.858;7.232;2023-02-28T03:01:12;2.50;;;2.10;;
12950;SDS011;6540;50.858;7.232;2023-02-28T03:03:50;1.67;;;1.57;;
12950;SDS011;6540;50.858;7.232;2023-02-28T03:06:15;2.20;;;1.67;;
12950;SDS011;6540;50.858;7.232;2023-02-28T03:08:40;1.60;;;1.50;;
12950;SDS011;6540;50.858;7.232;2023-02-28T03:11:06;1.60;;;1.50;;
12950;SDS011;6540;50.858;7.232;2023-02-28T03:21:51;2.10;;;1.57;;
12950;SDS011;6540;50.858;7.232;2023-02-28T03:24:08;3.90;;;1.60;;
12950;SDS011;6540;50.858;7.232;2023-02-28T03:26:42;1.83;;;1.57;;
12950;SDS011;6540;50.858;7.232;2023-02-28T03:29:15;2.30;;;2.20;;
12950;SDS011;6540;50.858;7.232;2023-02-28T03:31:52;0.97;;;0.97;;
12950;SDS011;6540;50.858;7.232;2023-02-28T03:34:25;1.67;;;1.57;;
12950;SDS011;6540;50.858;7.232;2023-02-28T03:36:59;3.23;;;2.03;;
12950;SDS011;6540;50.858;7.232;2023-02-28T03:39:47;1.67;;;1.57;;
12950;SDS011;6540;50.858;7.232;2023-02-28T03:42:18;3.80;;;1.67;;
12950;SDS011;6540;50.858;7.232;2023-02-28T03:44:57;2.10;;;1.43;;
12950;SDS011;6540;50.858;7.232;2023-02-28T03:47:30;2.07;;;1.57;;
12950;SDS011;6540;50.858;7.232;2023-02-28T03:52:34;2.23;;;1.60;;
12950;SDS011;6540;50.858;7.232;2023-02-28T03:55:05;2.00;;;1.83;;
12950;SDS011;6540;50.858;7.232;2023-02-28T04:02:53;1.30;;;1.20;;
12950;SDS011;6540;50.858;7.232;2023-02-28T04:05:19;2.00;;;1.87;;
12950;SDS011;6540;50.858;7.232;2023-02-28T04:07:45;3.77;;;1.50;;
12950;SDS011;6540;50.858;7.232;2023-02-28T04:10:11;1.53;;;1.43;;
12950;SDS011;6540;50.858;7.232;2023-02-28T04:12:38;2.70;;;2.13;;
12950;SDS011;6540;50.858;7.232;2023-02-28T04:15:03;1.83;;;1.73;;
12950;SDS011;6540;50.858;7.232;2023-02-28T04:17:29;2.17;;;1.67;;
12950;SDS011;6540;50.858;7.232;2023-02-28T04:19:55;2.00;;;1.73;;
12950;SDS011;6540;50.858;7.232;2023-02-28T04:22:22;2.03;;;1.87;;
12950;SDS011;6540;50.858;7.232;2023-02-28T04:24:47;2.80;;;1.47;;
12950;SDS011;6540;50.858;7.232;2023-02-28T04:27:12;1.40;;;1.30;;
12950;SDS011;6540;50.858;7.232;2023-02-28T04:29:40;1.50;;;1.40;;
12950;SDS011;6540;50.858;7.232;2023-02-28T04:32:09;1.33;;;1.23;;
12950;SDS011;6540;50.858;7.232;2023-02-28T04:34:35;1.97;;;1.87;;
12950;SDS011;6540;50.858;7.232;2023-02-28T04:37:01;3.03;;;1.93;;
12950;SDS011;6540;50.858;7.232;2023-02-28T04:39:28;1.83;;;1.73;;
12950;SDS011;6540;50.858;7.232;2023-02-28T04:41:54;1.60;;;1.50;;
12950;SDS011;6540;50.858;7.232;2023-02-28T04:44:20;5.23;;;1.77;;
12950;SDS011;6540;50.858;7.232;2023-02-28T04:46:47;1.80;;;1.37;;
12950;SDS011;6540;50.858;7.232;2023-02-28T04:49:12;2.07;;;1.80;;
12950;SDS011;6540;50.858;7.232;2023-02-28T04:51:38;2.07;;;1.67;;
12950;SDS011;6540;50.858;7.232;2023-02-28T04:54:04;1.13;;;1.13;;
12950;SDS011;6540;50.858;7.232;2023-02-28T04:56:29;2.03;;;1.90;;
12950;SDS011;6540;50.858;7.232;2023-02-28T04:58:54;1.90;;;1.60;;
12950;SDS011;6540;50.858;7.232;2023-02-28T05:01:21;1.67;;;1.50;;
12950;SDS011;6540;50.858;7.232;2023-02-28T05:03:49;1.43;;;1.33;;
12950;SDS011;6540;50.858;7.232;2023-02-28T05:06:15;2.60;;;1.67;;
12950;SDS011;6540;50.858;7.232;2023-02-28T05:08:41;2.67;;;1.80;;
12950;SDS011;6540;50.858;7.232;2023-02-28T05:11:08;2.73;;;2.00;;
12950;SDS011;6540;50.858;7.232;2023-02-28T05:13:39;2.50;;;1.70;;
12950;SDS011;6540;50.858;7.232;2023-02-28T05:16:04;1.80;;;1.63;;
12950;SDS011;6540;50.858;7.232;2023-02-28T05:18:30;1.57;;;1.47;;
12950;SDS011;6540;50.858;7.232;2023-02-28T05:20:55;1.93;;;1.70;;
12950;SDS011;6540;50.858;7.232;2023-02-28T05:23:20;1.90;;;1.70;;
12950;SDS011;6540;50.858;7.232;2023-02-28T05:25:47;2.00;;;1.90;;
12950;SDS011;6540;50.858;7.232;2023-02-28T05:28:13;1.83;;;1.73;;
12950;SDS011;6540;50.858;7.232;2023-02-28T05:30:39;1.60;;;1.50;;
12950;SDS011;6540;50.858;7.232;2023-02-28T05:33:04;1.80;;;1.63;;
12950;SDS011;6540;50.858;7.232;2023-02-28T05:35:30;2.00;;;1.80;;
12950;SDS011;6540;50.858;7.232;2023-02-28T05:37:55;1.63;;;1.50;;
12950;SDS011;6540;50.858;7.232;2023-02-28T05:40:20;1.90;;;1.80;;
12950;SDS011;6540;50.858;7.232;2023-02-28T05:42:46;2.40;;;1.80;;
12950;SDS011;6540;50.858;7.232;2023-02-28T05:45:11;1.60;;;1.50;;
12950;SDS011;6540;50.858;7.232;2023-02-28T05:47:37;1.73;;;1.63;;
12950;SDS011;6540;50.858;7.232;2023-02-28T05:50:02;2.37;;;1.83;;
12950;SDS011;6540;50.858;7.232;2023-02-28T05:52:29;2.10;;;1.77;;
12950;SDS011;6540;50.858;7.232;2023-02-28T05:54:57;1.87;;;1.77;;
12950;SDS011;6540;50.858;7.232;2023-02-28T05:57:22;2.97;;;1.73;;
12950;SDS011;6540;50.858;7.232;2023-02-28T05:59:48;2.43;;;1.80;;
12950;SDS011;6540;50.858;7.232;2023-02-28T06:02:14;2.20;;;1.50;;
12950;SDS011;6540;50.858;7.232;2023-02-28T06:04:42;2.17;;;2.00;;
12950;SDS011;6540;50.858;7.232;2023-02-28T06:07:08;2.10;;;1.90;;
12950;SDS011;6540;50.858;7.232;2023-02-28T06:09:34;1.93;;;1.60;;
12950;SDS011;6540;50.858;7.232;2023-02-28T06:12:00;1.70;;;1.57;;
12950;SDS011;6540;50.858;7.232;2023-02-28T06:14:29;1.63;;;1.53;;
12950;SDS011;6540;50.858;7.232;2023-02-28T06:16:56;1.63;;;1.37;;
12950;SDS011;6540;50.858;7.232;2023-02-28T06:19:22;1.83;;;1.73;;
12950;SDS011;6540;50.858;7.232;2023-02-28T06:21:50;1.80;;;1.70;;
12950;SDS011;6540;50.858;7.232;2023-02-28T06:24:17;2.23;;;1.90;;
12950;SDS011;6540;50.858;7.232;2023-02-28T06:26:43;2.33;;;1.57;;
12950;SDS011;6540;50.858;7.232;2023-02-28T06:29:09;2.47;;;2.27;;
12950;SDS011;6540;50.858;7.232;2023-02-28T06:31:35;6.50;;;2.13;;
12950;SDS011;6540;50.858;7.232;2023-02-28T06:34:00;1.50;;;1.40;;
12950;SDS011;6540;50.858;7.232;2023-02-28T06:36:25;3.27;;;2.37;;
12950;SDS011;6540;50.858;7.232;2023-02-28T06:38:51;2.03;;;1.93;;
12950;SDS011;6540;50.858;7.232;2023-02-28T06:41:19;2.00;;;1.80;;
12950;SDS011;6540;50.858;7.232;2023-02-28T06:43:45;2.93;;;2.50;;
12950;SDS011;6540;50.858;7.232;2023-02-28T06:46:12;2.10;;;1.90;;
12950;SDS011;6540;50.858;7.232;2023-02-28T06:48:39;3.07;;;2.40;;
12950;SDS011;6540;50.858;7.232;2023-02-28T06:51:08;2.20;;;1.80;;
12950;SDS011;6540;50.858;7.232;2023-02-28T06:53:36;2.73;;;1.90;;
12950;SDS011;6540;50.858;7.232;2023-02-28T06:56:05;1.70;;;1.60;;
12950;SDS011;6540;50.858;7.232;2023-02-28T06:58:35;2.70;;;2.40;;
12950;SDS011;6540;50.858;7.232;2023-02-28T07:01:02;2.10;;;1.90;;
12950;SDS011;6540;50.858;7.232;2023-02-28T07:03:29;2.23;;;1.90;;
12950;SDS011;6540;50.858;7.232;2023-02-28T07:05:54;4.50;;;1.63;;
12950;SDS011;6540;50.858;7.232;2023-02-28T07:08:21;1.70;;;1.60;;
12950;SDS011;6540;50.858;7.232;2023-02-28T07:10:52;1.90;;;1.73;;
12950;SDS011;6540;50.858;7.232;2023-02-28T07:13:18;1.87;;;1.57;;
12950;SDS011;6540;50.858;7.232;2023-02-28T07:15:44;5.97;;;1.47;;
12950;SDS011;6540;50.858;7.232;2023-02-28T07:18:09;3.47;;;1.40;;
12950;SDS011;6540;50.858;7.232;2023-02-28T07:20:34;3.03;;;1.90;;
12950;SDS011;6540;50.858;7.232;2023-02-28T07:23:00;2.13;;;1.93;;
12950;SDS011;6540;50.858;7.232;2023-02-28T07:25:26;2.27;;;2.17;;
12950;SDS011;6540;50.858;7.232;2023-02-28T07:27:52;1.80;;;1.70;;
12950;SDS011;6540;50.858;7.232;2023-02-28T07:30:18;2.13;;;1.97;;
12950;SDS011;6540;50.858;7.232;2023-02-28T07:32:44;2.17;;;1.97;;
12950;SDS011;6540;50.858;7.232;2023-02-28T07:35:09;1.80;;;1.70;;
12950;SDS011;6540;50.858;7.232;2023-02-28T07:37:35;2.10;;;1.83;;
12950;SDS011;6540;50.858;7.232;2023-02-28T07:40:04;2.37;;;2.17;;
12950;SDS011;6540;50.858;7.232;2023-02-28T07:42:33;2.67;;;2.03;;
12950;SDS011;6540;50.858;7.232;2023-02-28T07:45:02;2.53;;;2.17;;
12950;SDS011;6540;50.858;7.232;2023-02-28T07:47:29;2.57;;;2.37;;
12950;SDS011;6540;50.858;7.232;2023-02-28T07:49:55;2.40;;;2.17;;
12950;SDS011;6540;50.858;7.232;2023-02-28T07:52:21;3.10;;;2.20;;
12950;SDS011;6540;50.858;7.232;2023-02-28T07:54:48;2.40;;;1.97;;
12950;SDS011;6540;50.858;7.232;2023-02-28T07:57:14;3.00;;;2.70;;
12950;SDS011;6540;50.858;7.232;2023-02-28T07:59:39;2.73;;;2.47;;
12950;SDS011;6540;50.858;7.232;2023-02-28T08:02:04;3.30;;;2.83;;
12950;SDS011;6540;50.858;7.232;2023-02-28T08:04:31;3.33;;;2.97;;
12950;SDS011;6540;50.858;7.232;2023-02-28T08:06:57;3.23;;;2.77;;
12950;SDS011;6540;50.858;7.232;2023-02-28T08:09:22;2.80;;;2.57;;
12950;SDS011;6540;50.858;7.232;2023-02-28T08:11:48;7.77;;;2.73;;
12950;SDS011;6540;50.858;7.232;2023-02-28T08:14:13;2.40;;;2.13;;
12950;SDS011;6540;50.858;7.232;2023-02-28T08:16:38;3.63;;;2.67;;
12950;SDS011;6540;50.858;7.232;2023-02-28T08:19:04;3.67;;;2.50;;
12950;SDS011;6540;50.858;7.232;2023-02-28T08:21:29;2.50;;;2.27;;
12950;SDS011;6540;50.858;7.232;2023-02-28T08:23:54;3.33;;;2.47;;
12950;SDS011;6540;50.858;7.232;2023-02-28T08:26:21;2.63;;;2.33;;
12950;SDS011;6540;50.858;7.232;2023-02-28T08:28:47;2.57;;;2.30;;
12950;SDS011;6540;50.858;7.232;2023-02-28T08:31:13;3.13;;;1.93;;
12950;SDS011;6540;50.858;7.232;2023-02-28T08:33:41;3.30;;;2.10;;
12950;SDS011;6540;50.858;7.232;2023-02-28T08:36:07;1.80;;;1.70;;
12950;SDS011;6540;50.858;7.232;2023-02-28T08:38:34;2.40;;;1.93;;
12950;SDS011;6540;50.858;7.232;2023-02-28T08:41:01;2.87;;;2.30;;
12950;SDS011;6540;50.858;7.232;2023-02-28T08:43:30;0.90;;;0.90;;
12950;SDS011;6540;50.858;7.232;2023-02-28T08:45:56;1.70;;;1.60;;
12950;SDS011;6540;50.858;7.232;2023-02-28T08:48:22;3.53;;;1.87;;
12950;SDS011;6540;50.858;7.232;2023-02-28T08:51:21;0.70;;;0.70;;
12950;SDS011;6540;50.858;7.232;2023-02-28T08:53:47;1.80;;;1.70;;
12950;SDS011;6540;50.858;7.232;2023-02-28T08:56:14;1.53;;;1.40;;
12950;SDS011;6540;50.858;7.232;2023-02-28T08:58:44;1.07;;;0.97;;
12950;SDS011;6540;50.858;7.232;2023-02-28T09:01:12;1.70;;;1.50;;
12950;SDS011;6540;50.858;7.232;2023-02-28T09:03:40;1.90;;;1.50;;
12950;SDS011;6540;50.858;7.232;2023-02-28T09:06:11;1.50;;;1.40;;
12950;SDS011;6540;50.858;7.232;2023-02-28T09:08:37;1.37;;;1.30;;
12950;SDS011;6540;50.858;7.232;2023-02-28T09:11:02;1.40;;;1.30;;
12950;SDS011;6540;50.858;7.232;2023-02-28T09:13:28;1.47;;;1.37;;
12950;SDS011;6540;50.858;7.232;2023-02-28T09:15:57;1.70;;;1.60;;
12950;SDS011;6540;50.858;7.232;2023-02-28T09:18:24;1.40;;;1.10;;
12950;SDS011;6540;50.858;7.232;2023-02-28T09:20:49;1.60;;;1.50;;
12950;SDS011;6540;50.858;7.232;2023-02-28T09:23:15;1.50;;;1.40;;
12950;SDS011;6540;50.858;7.232;2023-02-28T09:25:51;1.43;;;1.33;;
12950;SDS011;6540;50.858;7.232;2023-02-28T09:28:18;1.40;;;1.30;;
12950;SDS011;6540;50.858;7.232;2023-02-28T09:30:45;1.87;;;1.67;;
12950;SDS011;6540;50.858;7.232;2023-02-28T09:33:12;1.53;;;1.43;;
12950;SDS011;6540;50.858;7.232;2023-02-28T09:35:38;1.17;;;1.03;;
12950;SDS011;6540;50.858;7.232;2023-02-28T09:38:04;0.90;;;0.87;;
12950;SDS011;6540;50.858;7.232;2023-02-28T09:40:30;4.43;;;1.90;;
12950;SDS011;6540;50.858;7.232;2023-02-28T09:42:56;1.67;;;1.57;;
12950;SDS011;6540;50.858;7.232;2023-02-28T09:45:35;1.10;;;0.93;;
12950;SDS011;6540;50.858;7.232;2023-02-28T09:48:10;4.03;;;2.10;;
12950;SDS011;6540;50.858;7.232;2023-02-28T09:50:41;3.37;;;2.33;;
12950;SDS011;6540;50.858;7.232;2023-02-28T09:55:54;5.03;;;2.93;;
12950;SDS011;6540;50.858;7.232;2023-02-28T09:58:26;2.30;;;2.10;;
12950;SDS011;6540;50.858;7.232;2023-02-28T10:00:59;2.63;;;1.90;;
12950;SDS011;6540;50.858;7.232;2023-02-28T10:03:39;2.40;;;2.10;;
12950;SDS011;6540;50.858;7.232;2023-02-28T10:06:20;1.53;;;1.40;;
12950;SDS011;6540;50.858;7.232;2023-02-28T10:11:22;1.70;;;1.60;;
12950;SDS011;6540;50.858;7.232;2023-02-28T10:14:07;1.57;;;1.47;;
12950;SDS011;6540;50.858;7.232;2023-02-28T10:21:46;1.63;;;1.53;;
12950;SDS011;6540;50.858;7.232;2023-02-28T10:26:56;1.57;;;1.40;;
12950;SDS011;6540;50.858;7.232;2023-02-28T10:29:27;1.60;;;1.50;;
12950;SDS011;6540;50.858;7.232;2023-02-28T10:31:54;1.80;;;1.53;;
12950;SDS011;6540;50.858;7.232;2023-02-28T10:34:20;1.40;;;1.30;;
12950;SDS011;6540;50.858;7.232;2023-02-28T10:36:46;1.93;;;1.73;;
12950;SDS011;6540;50.858;7.232;2023-02-28T10:42:02;1.27;;;1.20;;
12950;SDS011;6540;50.858;7.232;2023-02-28T10:44:28;1.53;;;1.43;;
12950;SDS011;6540;50.858;7.232;2023-02-28T10:46:53;1.63;;;1.53;;
12950;SDS011;6540;50.858;7.232;2023-02-28T10:49:23;2.07;;;1.87;;
12950;SDS011;6540;50.858;7.232;2023-02-28T10:51:52;1.40;;;1.40;;
12950;SDS011;6540;50.858;7.232;2023-02-28T10:54:27;1.93;;;1.40;;
12950;SDS011;6540;50.858;7.232;2023-02-28T10:59:44;1.40;;;1.30;;
12950;SDS011;6540;50.858;7.232;2023-02-28T11:04:54;2.03;;;1.37;;
12950;SDS011;6540;50.858;7.232;2023-02-28T11:07:21;1.37;;;1.27;;
12950;SDS011;6540;50.858;7.232;2023-02-28T11:09:49;2.17;;;1.97;;
12950;SDS011;6540;50.858;7.232;2023-02-28T11:12:27;1.93;;;1.60;;
12950;SDS011;6540;50.858;7.232;2023-02-28T11:15:00;0.80;;;0.80;;
12950;SDS011;6540;50.858;7.232;2023-02-28T11:17:30;1.40;;;1.30;;
12950;SDS011;6540;50.858;7.232;2023-02-28T11:19:58;1.63;;;1.53;;
12950;SDS011;6540;50.858;7.232;2023-02-28T11:22:29;2.40;;;1.30;;
12950;SDS011;6540;50.858;7.232;2023-02-28T11:24:59;1.67;;;1.33;;
12950;SDS011;6540;50.858;7.232;2023-02-28T11:29:57;1.73;;;1.63;;
12950;SDS011;6540;50.858;7.232;2023-02-28T11:32:28;1.47;;;1.37;;
12950;SDS011;6540;50.858;7.232;2023-02-28T11:35:02;3.03;;;1.40;;
12950;SDS011;6540;50.858;7.232;2023-02-28T11:37:34;1.53;;;1.43;;
12950;SDS011;6540;50.858;7.232;2023-02-28T11:40:00;1.40;;;1.30;;
12950;SDS011;6540;50.858;7.232;2023-02-28T11:42:36;1.17;;;1.17;;
12950;SDS011;6540;50.858;7.232;2023-02-28T11:45:36;1.63;;;1.37;;
12950;SDS011;6540;50.858;7.232;2023-02-28T11:56:41;3.23;;;1.77;;
12950;SDS011;6540;50.858;7.232;2023-02-28T12:02:06;1.87;;;1.60;;
12950;SDS011;6540;50.858;7.232;2023-02-28T12:10:51;4.67;;;3.60;;
12950;SDS011;6540;50.858;7.232;2023-02-28T12:13:28;2.53;;;2.30;;
12950;SDS011;6540;50.858;7.232;2023-02-28T12:26:44;1.63;;;1.30;;
12950;SDS011;6540;50.858;7.232;2023-02-28T12:31:40;2.10;;;1.90;;
12950;SDS011;6540;50.858;7.232;2023-02-28T12:34:13;1.87;;;1.77;;
12950;SDS011;6540;50.858;7.232;2023-02-28T12:36:44;1.47;;;1.37;;
12950;SDS011;6540;50.858;7.232;2023-02-28T12:39:31;2.40;;;1.93;;
12950;SDS011;6540;50.858;7.232;2023-02-28T12:42:05;3.77;;;2.00;;
12950;SDS011;6540;50.858;7.232;2023-02-28T12:44:37;1.70;;;1.60;;
12950;SDS011;6540;50.858;7.232;2023-02-28T12:47:13;1.20;;;1.00;;
12950;SDS011;6540;50.858;7.232;2023-02-28T12:52:18;2.47;;;1.80;;
12950;SDS011;6540;50.858;7.232;2023-02-28T12:54:57;1.43;;;1.10;;
12950;SDS011;6540;50.858;7.232;2023-02-28T12:57:34;1.43;;;1.33;;
12950;SDS011;6540;50.858;7.232;2023-02-28T13:00:08;3.83;;;1.80;;
12950;SDS011;6540;50.858;7.232;2023-02-28T13:10:48;2.13;;;2.00;;
12950;SDS011;6540;50.858;7.232;2023-02-28T13:13:26;2.50;;;2.17;;
12950;SDS011;6540;50.858;7.232;2023-02-28T13:16:08;2.30;;;1.87;;
12950;SDS011;6540;50.858;7.232;2023-02-28T13:18:38;2.53;;;2.33;;
12950;SDS011;6540;50.858;7.232;2023-02-28T13:24:09;2.50;;;2.20;;
12950;SDS011;6540;50.858;7.232;2023-02-28T13:29:01;2.23;;;1.97;;
12950;SDS011;6540;50.858;7.232;2023-02-28T13:39:53;3.13;;;2.73;;
12950;SDS011;6540;50.858;7.232;2023-02-28T13:42:24;3.10;;;2.33;;
12950;SDS011;6540;50.858;7.232;2023-02-28T13:58:24;3.07;;;2.60;;
12950;SDS011;6540;50.858;7.232;2023-02-28T14:06:23;3.80;;;2.30;;
12950;SDS011;6540;50.858;7.232;2023-02-28T14:09:00;3.53;;;2.40;;
12950;SDS011;6540;50.858;7.232;2023-02-28T14:11:29;4.20;;;2.60;;
12950;SDS011;6540;50.858;7.232;2023-02-28T14:14:06;2.50;;;2.30;;
12950;SDS011;6540;50.858;7.232;2023-02-28T14:38:24;2.93;;;2.63;;
12950;SDS011;6540;50.858;7.232;2023-02-28T14:40:53;3.47;;;2.60;;
12950;SDS011;6540;50.858;7.232;2023-02-28T14:43:22;2.33;;;2.13;;
12950;SDS011;6540;50.858;7.232;2023-02-28T14:45:57;2.93;;;2.33;;
12950;SDS011;6540;50.858;7.232;2023-02-28T14:48:25;2.90;;;2.70;;
12950;SDS011;6540;50.858;7.232;2023-02-28T14:50:52;6.37;;;3.20;;
12950;SDS011;6540;50.858;7.232;2023-02-28T14:53:22;4.43;;;3.30;;
12950;SDS011;6540;50.858;7.232;2023-02-28T14:55:51;2.73;;;2.47;;
12950;SDS011;6540;50.858;7.232;2023-02-28T14:58:25;3.57;;;3.17;;
12950;SDS011;6540;50.858;7.232;2023-02-28T15:00:53;4.10;;;2.50;;
12950;SDS011;6540;50.858;7.232;2023-02-28T15:03:31;3.53;;;2.73;;
12950;SDS011;6540;50.858;7.232;2023-02-28T15:05:58;3.17;;;2.30;;
12950;SDS011;6540;50.858;7.232;2023-02-28T15:09:06;2.70;;;2.50;;
12950;SDS011;6540;50.858;7.232;2023-02-28T15:11:36;2.80;;;2.33;;
12950;SDS011;6540;50.858;7.232;2023-02-28T15:14:03;3.20;;;2.73;;
12950;SDS011;6540;50.858;7.232;2023-02-28T15:16:35;4.87;;;2.40;;
12950;SDS011;6540;50.858;7.232;2023-02-28T15:21:51;4.50;;;3.23;;
12950;SDS011;6540;50.858;7.232;2023-02-28T15:24:40;4.67;;;2.83;;
12950;SDS011;6540;50.858;7.232;2023-02-28T15:27:12;3.23;;;2.53;;
12950;SDS011;6540;50.858;7.232;2023-02-28T15:29:44;3.13;;;2.40;;
12950;SDS011;6540;50.858;7.232;2023-02-28T15:32:23;3.63;;;2.80;;
12950;SDS011;6540;50.858;7.232;2023-02-28T15:34:48;2.70;;;2.50;;
12950;SDS011;6540;50.858;7.232;2023-02-28T15:40:05;3.00;;;2.47;;
12950;SDS011;6540;50.858;7.232;2023-02-28T15:42:38;3.10;;;2.77;;
12950;SDS011;6540;50.858;7.232;2023-02-28T15:45:04;3.13;;;2.53;;
12950;SDS011;6540;50.858;7.232;2023-02-28T15:47:30;2.70;;;2.50;;
12950;SDS011;6540;50.858;7.232;2023-02-28T15:50:04;4.53;;;2.63;;
12950;SDS011;6540;50.858;7.232;2023-02-28T15:52:38;2.10;;;1.90;;
12950;SDS011;6540;50.858;7.232;2023-02-28T15:55:12;2.83;;;2.57;;
12950;SDS011;6540;50.858;7.232;2023-02-28T15:57:44;3.10;;;2.63;;
12950;SDS011;6540;50.858;7.232;2023-02-28T16:00:12;2.43;;;2.23;;
12950;SDS011;6540;50.858;7.232;2023-02-28T16:02:40;5.60;;;2.70;;
12950;SDS011;6540;50.858;7.232;2023-02-28T16:07:35;5.83;;;3.70;;
12950;SDS011;6540;50.858;7.232;2023-02-28T16:10:02;3.07;;;2.53;;
12950;SDS011;6540;50.858;7.232;2023-02-28T16:12:29;22.33;;;10.17;;
12950;SDS011;6540;50.858;7.232;2023-02-28T16:15:00;6.93;;;4.87;;
12950;SDS011;6540;50.858;7.232;2023-02-28T16:17:31;6.10;;;4.90;;
12950;SDS011;6540;50.858;7.232;2023-02-28T16:19:59;7.70;;;3.70;;
12950;SDS011;6540;50.858;7.232;2023-02-28T16:22:24;11.13;;;6.93;;
12950;SDS011;6540;50.858;7.232;2023-02-28T16:24:50;6.73;;;6.00;;
12950;SDS011;6540;50.858;7.232;2023-02-28T16:27:24;3.90;;;3.50;;
12950;SDS011;6540;50.858;7.232;2023-02-28T16:29:54;3.73;;;2.90;;
12950;SDS011;6540;50.858;7.232;2023-02-28T16:32:20;3.23;;;2.27;;
12950;SDS011;6540;50.858;7.232;2023-02-28T16:34:45;3.37;;;2.73;;
12950;SDS011;6540;50.858;7.232;2023-02-28T16:37:14;2.70;;;2.50;;
12950;SDS011;6540;50.858;7.232;2023-02-28T16:39:43;2.73;;;2.53;;
12950;SDS011;6540;50.858;7.232;2023-02-28T16:42:18;4.47;;;3.20;;
12950;SDS011;6540;50.858;7.232;2023-02-28T16:44:47;3.00;;;2.80;;
12950;SDS011;6540;50.858;7.232;2023-02-28T16:47:13;2.80;;;2.60;;
12950;SDS011;6540;50.858;7.232;2023-02-28T16:49:38;12.80;;;4.43;;
12950;SDS011;6540;50.858;7.232;2023-02-28T16:52:06;6.37;;;3.90;;
12950;SDS011;6540;50.858;7.232;2023-02-28T16:54:32;6.20;;;3.90;;
12950;SDS011;6540;50.858;7.232;2023-02-28T16:56:58;4.90;;;3.77;;
12950;SDS011;6540;50.858;7.232;2023-02-28T16:59:24;3.53;;;2.87;;
12950;SDS011;6540;50.858;7.232;2023-02-28T17:01:52;3.03;;;2.47;;
12950;SDS011;6540;50.858;7.232;2023-02-28T17:04:18;3.83;;;2.80;;
12950;SDS011;6540;50.858;7.232;2023-02-28T17:06:43;4.53;;;3.27;;
12950;SDS011;6540;50.858;7.232;2023-02-28T17:09:19;3.33;;;2.90;;
12950;SDS011;6540;50.858;7.232;2023-02-28T17:11:46;2.47;;;2.27;;
12950;SDS011;6540;50.858;7.232;2023-02-28T17:14:12;3.07;;;2.23;;
12950;SDS011;6540;50.858;7.232;2023-02-28T17:16:38;3.13;;;2.37;;
12950;SDS011;6540;50.858;7.232;2023-02-28T17:19:09;2.33;;;2.10;;
12950;SDS011;6540;50.858;7.232;2023-02-28T17:21:37;2.47;;;2.27;;
12950;SDS011;6540;50.858;7.232;2023-02-28T17:24:03;3.07;;;2.30;;
12950;SDS011;6540;50.858;7.232;2023-02-28T17:26:29;2.50;;;2.20;;
12950;SDS011;6540;50.858;7.232;2023-02-28T17:28:55;3.03;;;2.60;;
12950;SDS011;6540;50.858;7.232;2023-02-28T17:31:22;3.30;;;2.60;;
12950;SDS011;6540;50.858;7.232;2023-02-28T17:33:48;2.13;;;2.00;;
12950;SDS011;6540;50.858;7.232;2023-02-28T17:36:14;3.50;;;2.30;;
12950;SDS011;6540;50.858;7.232;2023-02-28T17:38:42;3.83;;;2.43;;
12950;SDS011;6540;50.858;7.232;2023-02-28T17:41:10;5.53;;;2.77;;
12950;SDS011;6540;50.858;7.232;2023-02-28T17:43:36;3.97;;;2.87;;
12950;SDS011;6540;50.858;7.232;2023-02-28T17:46:01;8.53;;;4.43;;
12950;SDS011;6540;50.858;7.232;2023-02-28T17:48:26;7.10;;;3.53;;
12950;SDS011;6540;50.858;7.232;2023-02-28T17:50:52;4.23;;;2.97;;
12950;SDS011;6540;50.858;7.232;2023-02-28T17:53:18;4.87;;;2.43;;
12950;SDS011;6540;50.858;7.232;2023-02-28T17:55:44;3.93;;;2.50;;